Glasgow, Montana
Current Conditions -  °F | °C
As of 5:53 PM on Friday 19 Dec 2014 (Local Time) from KGGW Reporting Station
Clear Clear  
Wind Chill: -7°   Ceiling: Unl
Heat Index: -2°   Visibility: 10mi
Dew Point: -4°   Wind: 10mph
Humidity: 82%   Direction: 100°E
Pressure: 29.84"   Gusts: NA
Location:  48.2°N, 106.64°W
Report Text: KGGW 200053Z AUTO 10009KT 10SM CLR M02/M04 A2984 RMK AO2 SLP140 T10171044
Loading
Personal Weather Stations






























Interactive Weather Map New forecast layout! Learn more

10-Day Weather Forecast

Advertisements
Track Severe Weather on mobile